Time;durP1;ratioP1;P1;durP2;ratioP2;P2;SDS_P1;SDS_P2;PMS_P1;PMS_P2;Temp;Humidity;BMP_temperature;BMP_pressure;BME280_temperature;BME280_humidity;BME280_pressure;Samples;Min_cycle;Max_cycle;Signal;HPM_P1;HPM_P2
2023/05/20 00:04:31;;;;;;;5.83;5.20;;;13.20;99.90;;;;;;10205953;29;20250;-89
2023/05/20 00:09:33;;;;;;;11.03;6.03;;;13.20;99.90;;;;;;10214298;29;20238;-90
2023/05/20 00:14:36;;;;;;;5.53;4.78;;;13.30;99.90;;;;;;10214068;29;20298;-90
2023/05/20 00:19:38;;;;;;;7.10;4.97;;;13.40;99.90;;;;;;10194980;29;20239;-89
2023/05/20 00:24:41;;;;;;;8.43;4.82;;;13.30;99.90;;;;;;10214445;29;20235;-90
2023/05/20 00:29:43;;;;;;;4.80;4.30;;;13.30;99.90;;;;;;10213758;29;20286;-90
2023/05/20 00:34:56;;;;;;;7.78;4.95;;;13.30;99.90;;;;;;10183848;29;20258;-90
2023/05/20 00:39:58;;;;;;;8.00;5.18;;;13.20;99.90;;;;;;10196316;29;20740;-90
2023/05/20 00:45:01;;;;;;;5.90;3.77;;;13.20;99.90;;;;;;10195903;29;20313;-89
2023/05/20 00:50:04;;;;;;;10.20;4.63;;;13.10;99.90;;;;;;10195945;29;20246;-90
2023/05/20 00:55:07;;;;;;;5.13;4.40;;;13.20;99.90;;;;;;10194839;29;20246;-90
2023/05/20 01:00:10;;;;;;;8.50;5.05;;;13.20;99.90;;;;;;10195572;29;20634;-91
2023/05/20 01:05:13;;;;;;;5.40;3.83;;;13.20;99.90;;;;;;10212830;29;20653;-90
2023/05/20 01:10:16;;;;;;;5.68;4.57;;;13.00;99.90;;;;;;10194526;29;20242;-90
2023/05/20 01:15:22;;;;;;;6.20;4.00;;;13.10;99.90;;;;;;10211783;29;20297;-90
2023/05/20 01:20:25;;;;;;;4.63;4.05;;;13.10;99.90;;;;;;10212273;29;20649;-90
2023/05/20 01:25:29;;;;;;;11.88;4.68;;;13.00;99.90;;;;;;10210872;29;20267;-90
2023/05/20 01:30:38;;;;;;;8.77;5.57;;;12.90;99.90;;;;;;10210568;29;20327;-90
2023/05/20 01:35:41;;;;;;;5.07;4.53;;;13.10;99.90;;;;;;10210840;29;20309;-91
2023/05/20 01:40:46;;;;;;;8.33;4.23;;;13.10;99.90;;;;;;10175942;29;20713;-90
2023/05/20 01:45:49;;;;;;;9.87;5.23;;;13.10;99.90;;;;;;10211096;29;20313;-90
2023/05/20 01:50:51;;;;;;;3.95;3.33;;;13.10;99.90;;;;;;10209873;29;20412;-90
2023/05/20 01:55:54;;;;;;;3.60;2.67;;;13.00;99.90;;;;;;10191106;29;20242;-90
2023/05/20 02:00:57;;;;;;;5.40;4.10;;;13.10;99.90;;;;;;10192371;29;20243;-90
2023/05/20 02:05:59;;;;;;;4.83;3.80;;;13.20;99.90;;;;;;10209418;29;20263;-90
2023/05/20 02:11:02;;;;;;;6.40;4.57;;;13.10;99.90;;;;;;10211455;29;20258;-91
2023/05/20 02:16:05;;;;;;;3.20;2.85;;;13.10;99.90;;;;;;10208509;29;20340;-91
2023/05/20 02:21:07;;;;;;;5.05;3.85;;;13.20;99.90;;;;;;10208958;29;20243;-91
2023/05/20 02:26:10;;;;;;;8.50;3.83;;;13.20;99.90;;;;;;10208399;29;20318;-90
2023/05/20 02:31:12;;;;;;;8.00;5.13;;;13.00;99.90;;;;;;10168690;29;20291;-90
2023/05/20 02:36:16;;;;;;;5.93;4.63;;;13.10;99.90;;;;;;10169515;29;20661;-90
2023/05/20 02:41:20;;;;;;;8.43;4.37;;;12.90;99.90;;;;;;10143260;29;20263;-90
2023/05/20 02:46:22;;;;;;;6.38;4.72;;;12.90;99.90;;;;;;10169104;29;20669;-90
2023/05/20 02:51:25;;;;;;;8.40;4.85;;;13.00;99.90;;;;;;10164441;29;20317;-90
2023/05/20 02:56:28;;;;;;;6.53;3.88;;;13.00;99.90;;;;;;10190610;29;21102;-90
2023/05/20 03:01:32;;;;;;;6.23;4.10;;;13.10;99.90;;;;;;10190222;29;20592;-89
2023/05/20 03:06:36;;;;;;;5.50;4.37;;;13.20;99.90;;;;;;10177810;29;20266;-90
2023/05/20 03:11:39;;;;;;;6.87;3.40;;;13.20;99.90;;;;;;10207486;29;20621;-90
2023/05/20 03:16:44;;;;;;;5.05;4.22;;;13.20;99.90;;;;;;10188815;29;20246;-91
2023/05/20 03:21:46;;;;;;;5.75;4.47;;;13.10;99.90;;;;;;10207138;29;20261;-89
2023/05/20 03:26:51;;;;;;;4.03;3.23;;;13.10;99.90;;;;;;10187936;29;20293;-90
2023/05/20 03:31:53;;;;;;;4.95;4.15;;;13.00;99.90;;;;;;10189454;29;20246;-90
2023/05/20 03:36:56;;;;;;;5.75;4.30;;;12.90;99.90;;;;;;10206741;29;20306;-90
2023/05/20 03:41:59;;;;;;;7.13;4.63;;;12.90;99.90;;;;;;10206691;29;20266;-90
2023/05/20 03:47:01;;;;;;;6.00;4.60;;;13.00;99.90;;;;;;10189901;29;20262;-91
2023/05/20 03:52:06;;;;;;;11.83;5.47;;;12.80;99.90;;;;;;10188755;29;20298;-90
2023/05/20 03:57:11;;;;;;;8.07;4.70;;;12.90;99.90;;;;;;10205809;29;20297;-90
2023/05/20 04:02:15;;;;;;;7.43;4.90;;;12.90;99.90;;;;;;10189001;29;20219;-90
2023/05/20 04:07:18;;;;;;;4.47;3.77;;;13.00;99.90;;;;;;10189310;29;20274;-90
2023/05/20 04:12:21;;;;;;;5.67;4.63;;;12.90;99.90;;;;;;10188679;29;20652;-90
2023/05/20 04:17:24;;;;;;;9.05;5.10;;;12.80;99.90;;;;;;10206318;29;20238;-90
2023/05/20 04:22:27;;;;;;;5.72;4.60;;;12.90;99.90;;;;;;10205319;29;20238;-90
2023/05/20 04:27:32;;;;;;;6.32;4.07;;;13.10;99.90;;;;;;10206535;29;20262;-90
2023/05/20 04:32:35;;;;;;;6.23;3.87;;;13.10;99.90;;;;;;10205425;29;20664;-90
2023/05/20 04:37:38;;;;;;;6.27;4.57;;;13.10;99.90;;;;;;10188665;29;20301;-90
2023/05/20 04:42:42;;;;;;;7.17;4.20;;;13.30;99.90;;;;;;10205821;29;20699;-90
2023/05/20 04:47:46;;;;;;;5.60;4.40;;;13.50;99.90;;;;;;10187621;29;20792;-90
2023/05/20 04:52:49;;;;;;;8.27;4.90;;;13.50;99.90;;;;;;10194537;29;20270;-90
2023/05/20 04:57:52;;;;;;;5.15;4.43;;;13.50;99.90;;;;;;10194658;29;20239;-90
2023/05/20 05:02:54;;;;;;;9.73;5.60;;;13.50;99.90;;;;;;10212531;29;20699;-91
2023/05/20 05:07:57;;;;;;;9.47;5.43;;;13.30;99.90;;;;;;10211437;29;20274;-91
2023/05/20 05:13:02;;;;;;;9.33;5.67;;;13.50;99.90;;;;;;10166793;29;20243;-91
2023/05/20 05:18:06;;;;;;;6.93;5.22;;;13.50;99.90;;;;;;10178428;29;20263;-90
2023/05/20 05:23:10;;;;;;;6.87;5.00;;;13.60;99.90;;;;;;10173990;29;20243;-91
2023/05/20 05:28:13;;;;;;;7.63;4.70;;;13.70;99.90;;;;;;10212067;29;20310;-90
2023/05/20 05:33:16;;;;;;;14.27;5.40;;;13.70;99.90;;;;;;10183551;29;20211;-91
2023/05/20 05:38:19;;;;;;;7.93;4.95;;;13.80;99.90;;;;;;10178418;29;22218;-91
2023/05/20 05:43:21;;;;;;;10.55;4.82;;;13.90;99.90;;;;;;10191834;29;20296;-91
2023/05/20 05:48:25;;;;;;;5.63;4.60;;;13.90;99.90;;;;;;10205865;29;20638;-92
2023/05/20 05:53:30;;;;;;;10.03;6.30;;;14.00;99.90;;;;;;10181974;29;20235;-91
2023/05/20 05:58:33;;;;;;;7.07;5.63;;;14.10;99.90;;;;;;10173316;29;20215;-91
2023/05/20 06:03:38;;;;;;;6.35;4.38;;;14.10;99.90;;;;;;10175440;29;20772;-92
2023/05/20 06:08:41;;;;;;;4.80;4.27;;;14.20;99.90;;;;;;10154754;29;20805;-91
2023/05/20 06:13:45;;;;;;;9.43;5.43;;;14.50;99.90;;;;;;10157470;29;20215;-91
2023/05/20 06:18:55;;;;;;;3.80;3.20;;;14.50;99.90;;;;;;10209974;29;20780;-91
2023/05/20 06:23:58;;;;;;;5.45;4.68;;;14.60;99.90;;;;;;10192801;29;20215;-90
2023/05/20 06:29:02;;;;;;;8.03;4.80;;;14.80;99.90;;;;;;10208050;29;20720;-92
2023/05/20 06:34:05;;;;;;;5.63;4.30;;;15.10;99.90;;;;;;10208919;29;20250;-92
2023/05/20 06:39:11;;;;;;;8.20;5.47;;;15.00;99.90;;;;;;10191277;29;20670;-92
2023/05/20 06:44:17;;;;;;;2.88;2.33;;;15.00;99.90;;;;;;10192150;29;21007;-92
2023/05/20 06:49:30;;;;;;;4.80;4.30;;;15.20;99.90;;;;;;10158915;29;20290;-92
2023/05/20 06:54:38;;;;;;;7.07;5.90;;;15.30;99.90;;;;;;10191541;29;20309;-92
2023/05/20 06:59:42;;;;;;;9.65;6.38;;;15.40;99.90;;;;;;10191264;29;20242;-93
2023/05/20 07:04:45;;;;;;;5.22;4.72;;;15.20;99.90;;;;;;10174641;29;20314;-92
2023/05/20 07:09:48;;;;;;;2.85;2.65;;;15.60;99.90;;;;;;10191535;29;20266;-91
2023/05/20 07:14:51;;;;;;;7.23;5.63;;;15.70;99.90;;;;;;10189929;29;20238;-93
2023/05/20 07:19:55;;;;;;;5.60;4.23;;;16.00;99.40;;;;;;10209029;29;20254;-95
2023/05/20 07:24:59;;;;;;;5.82;5.07;;;16.10;99.30;;;;;;10210599;29;20211;-93
2023/05/20 07:30:02;;;;;;;8.03;5.33;;;16.20;98.60;;;;;;10176409;29;20940;-92
2023/05/20 07:35:09;;;;;;;4.10;3.57;;;16.30;98.70;;;;;;10154050;29;20313;-92
2023/05/20 07:40:11;;;;;;;10.93;7.17;;;16.70;97.60;;;;;;10190335;29;20266;-92
2023/05/20 07:45:14;;;;;;;9.20;6.82;;;16.90;97.10;;;;;;10209450;29;20266;-91
2023/05/20 07:50:17;;;;;;;11.43;7.60;;;17.40;96.20;;;;;;10208917;29;20329;-90
2023/05/20 07:55:20;;;;;;;10.60;7.18;;;;;;;;;;10213238;29;20245;-91
2023/05/20 08:00:23;;;;;;;2.42;2.03;;;17.70;94.70;;;;;;10182670;29;20298;-91
2023/05/20 08:05:26;;;;;;;3.30;2.97;;;18.10;93.80;;;;;;10190197;29;20247;-91
2023/05/20 08:10:29;;;;;;;12.15;8.20;;;18.20;93.20;;;;;;10189077;29;20262;-90
2023/05/20 08:15:32;;;;;;;8.23;5.45;;;18.40;93.70;;;;;;10179561;29;20288;-91
2023/05/20 08:20:35;;;;;;;3.72;3.00;;;18.50;92.40;;;;;;10152265;29;20719;-90
2023/05/20 08:25:38;;;;;;;18.45;10.00;;;18.70;91.60;;;;;;10180945;29;20246;-90
2023/05/20 08:30:42;;;;;;;4.68;3.10;;;18.90;91.80;;;;;;10196149;29;20318;-91
2023/05/20 08:35:45;;;;;;;11.63;8.27;;;19.00;90.00;;;;;;10192593;29;20314;-90
2023/05/20 08:40:54;;;;;;;10.75;7.72;;;19.00;89.30;;;;;;10173992;29;20271;-90
2023/05/20 08:45:57;;;;;;;8.70;7.80;;;;;;;;;;10183051;29;20910;-90
2023/05/20 08:51:08;;;;;;;2.77;1.77;;;19.40;87.50;;;;;;10156835;29;20679;-91
2023/05/20 08:56:12;;;;;;;6.20;5.20;;;19.50;85.90;;;;;;10173036;29;20235;-90
2023/05/20 09:01:15;;;;;;;8.83;7.10;;;19.60;84.40;;;;;;10212133;29;20298;-90
2023/05/20 09:06:21;;;;;;;13.73;9.45;;;19.70;86.60;;;;;;10208667;29;20295;-91
2023/05/20 09:11:23;;;;;;;11.98;9.98;;;19.70;82.90;;;;;;10180718;29;20295;-92
2023/05/20 09:16:25;;;;;;;11.50;9.27;;;19.60;85.70;;;;;;10173475;29;20303;-92
2023/05/20 09:21:29;;;;;;;11.32;9.40;;;19.50;82.50;;;;;;10200166;29;20254;-94
2023/05/20 09:26:31;;;;;;;4.82;3.15;;;19.60;83.60;;;;;;10212931;29;20309;-91
2023/05/20 09:31:37;;;;;;;7.80;5.35;;;19.40;83.80;;;;;;10165343;29;20680;-91
2023/05/20 09:36:42;;;;;;;8.25;6.32;;;19.50;85.20;;;;;;10192134;29;20259;-92
2023/05/20 09:41:51;;;;;;;11.75;8.13;;;19.40;84.20;;;;;;10208755;29;20302;-91
2023/05/20 09:46:55;;;;;;;32.50;7.88;;;19.20;85.90;;;;;;10211885;29;20211;-90
2023/05/20 09:52:01;;;;;;;8.02;6.00;;;19.20;87.90;;;;;;10177784;29;20268;-90
2023/05/20 09:57:06;;;;;;;4.47;3.72;;;19.30;86.80;;;;;;10187635;29;20247;-91
2023/05/20 10:02:08;;;;;;;12.77;9.82;;;19.40;84.80;;;;;;10209878;29;20242;-91
2023/05/20 10:07:46;;;;;;;10.00;7.35;;;19.30;84.90;;;;;;10193603;29;20263;-91
2023/05/20 10:13:17;;;;;;;8.27;5.90;;;19.10;87.50;;;;;;10195133;29;20239;-91
2023/05/20 10:18:29;;;;;;;5.82;3.15;;;19.20;86.70;;;;;;10194601;29;20282;-89
2023/05/20 10:23:32;;;;;;;12.27;8.95;;;19.10;86.40;;;;;;10171527;29;20623;-89
2023/05/20 10:28:37;;;;;;;2.85;2.65;;;19.20;89.50;;;;;;10171637;29;20736;-90
2023/05/20 10:33:44;;;;;;;9.80;6.38;;;19.30;86.30;;;;;;10204536;29;20844;-89
2023/05/20 10:38:55;;;;;;;9.93;6.30;;;19.50;87.90;;;;;;10182046;29;20251;-90
2023/05/20 10:44:05;;;;;;;10.25;5.68;;;19.60;85.90;;;;;;10180898;29;20361;-90
2023/05/20 10:49:18;;;;;;;11.05;7.80;;;19.70;81.60;;;;;;10198387;29;20259;-89
2023/05/20 10:54:24;;;;;;;9.80;8.80;;;19.80;82.20;;;;;;10159181;29;20353;-90
2023/05/20 10:59:26;;;;;;;12.45;8.05;;;20.00;82.70;;;;;;10158489;29;20298;-91
2023/05/20 11:04:30;;;;;;;11.48;7.43;;;20.20;79.90;;;;;;10192401;29;20298;-88
2023/05/20 11:09:33;;;;;;;14.05;9.57;;;20.50;80.20;;;;;;10198699;29;20275;-91
2023/05/20 11:14:36;;;;;;;17.20;9.20;;;20.60;80.80;;;;;;10169996;29;20240;-91
2023/05/20 11:19:38;;;;;;;13.95;9.00;;;20.50;80.60;;;;;;10151279;29;20756;-91
2023/05/20 11:24:41;;;;;;;11.35;8.50;;;20.40;81.50;;;;;;10151619;29;20303;-92
2023/05/20 11:29:44;;;;;;;10.60;8.10;;;20.40;79.60;;;;;;10167222;29;20334;-92
2023/05/20 11:34:51;;;;;;;10.55;8.00;;;20.70;80.90;;;;;;10136769;29;20314;-92
2023/05/20 11:40:07;;;;;;;11.63;7.78;;;20.70;80.90;;;;;;10193954;29;20308;-92
2023/05/20 11:45:13;;;;;;;13.80;10.13;;;20.80;77.80;;;;;;10248124;29;20242;-93
2023/05/20 11:50:19;;;;;;;23.85;10.38;;;20.60;77.90;;;;;;10229664;29;20316;-94
2023/05/20 12:00:50;;;;;;;10.05;7.60;;;20.40;82.10;;;;;;10127858;29;20303;-92
2023/05/20 12:06:03;;;;;;;11.35;8.60;;;20.10;80.70;;;;;;10121134;29;20251;-93
2023/05/20 12:11:06;;;;;;;12.40;9.30;;;20.00;84.30;;;;;;10119084;29;20334;-92
2023/05/20 12:16:08;;;;;;;10.90;9.02;;;20.10;88.30;;;;;;10119122;29;20272;-92
2023/05/20 12:21:11;;;;;;;15.53;10.43;;;20.10;88.20;;;;;;10127615;29;20292;-93
2023/05/20 12:26:14;;;;;;;14.38;9.18;;;20.10;86.70;;;;;;10119315;29;20240;-92
2023/05/20 12:31:16;;;;;;;20.08;10.55;;;20.20;89.50;;;;;;10120100;29;20275;-93
2023/05/20 12:36:19;;;;;;;15.75;9.32;;;20.40;86.10;;;;;;10135949;29;20280;-92
2023/05/20 12:41:22;;;;;;;13.60;11.02;;;20.30;84.20;;;;;;10135007;29;20248;-92
2023/05/20 12:46:24;;;;;;;14.05;10.52;;;20.20;88.20;;;;;;10117664;29;20220;-92
2023/05/20 12:51:27;;;;;;;14.00;8.98;;;20.10;90.40;;;;;;10117483;29;20331;-92
2023/05/20 12:56:30;;;;;;;12.35;8.40;;;20.20;88.70;;;;;;10141600;29;20334;-92
2023/05/20 13:01:33;;;;;;;11.13;9.80;;;20.30;90.10;;;;;;10151090;29;20236;-92
2023/05/20 13:06:36;;;;;;;14.60;9.98;;;20.40;89.30;;;;;;10151839;29;20247;-92
2023/05/20 13:11:38;;;;;;;14.20;11.35;;;20.40;86.50;;;;;;10150987;29;20271;-92
2023/05/20 13:16:41;;;;;;;7.35;6.28;;;20.40;85.90;;;;;;10136475;29;20246;-92
2023/05/20 13:21:44;;;;;;;8.88;8.02;;;20.40;85.80;;;;;;10152011;29;20247;-92
2023/05/20 13:26:46;;;;;;;19.38;14.15;;;20.50;86.20;;;;;;10151897;29;20254;-94
2023/05/20 13:31:49;;;;;;;15.70;11.63;;;20.60;89.60;;;;;;10151978;29;20323;-92
2023/05/20 13:36:51;;;;;;;18.77;14.15;;;20.60;86.20;;;;;;10152416;29;20246;-91
2023/05/20 13:41:54;;;;;;;9.98;8.68;;;20.70;90.20;;;;;;10172525;29;20708;-93
2023/05/20 13:46:57;;;;;;;15.95;11.15;;;20.60;84.40;;;;;;10153070;29;20298;-92
2023/05/20 13:51:59;;;;;;;15.40;11.18;;;20.60;84.40;;;;;;10170780;29;20328;-92
2023/05/20 13:57:06;;;;;;;19.88;11.55;;;20.60;87.60;;;;;;10171569;29;20276;-91
2023/05/20 14:02:09;;;;;;;17.60;12.05;;;20.50;85.60;;;;;;10170663;29;20252;-94
2023/05/20 14:07:13;;;;;;;20.15;13.55;;;20.40;87.30;;;;;;10147027;29;20243;-94
2023/05/20 14:12:16;;;;;;;26.55;12.40;;;20.60;90.70;;;;;;10147554;29;20275;-93
2023/05/20 14:17:19;;;;;;;11.88;9.90;;;20.90;90.20;;;;;;10132326;29;20243;-94
2023/05/20 14:22:22;;;;;;;14.85;12.32;;;20.90;84.00;;;;;;10147842;29;20769;-94
2023/05/20 14:27:25;;;;;;;17.63;11.57;;;;;;;;;;10170237;29;20283;-94
2023/05/20 14:32:28;;;;;;;8.00;7.18;;;21.10;89.50;;;;;;10138731;29;20258;-94
2023/05/20 14:37:30;;;;;;;14.20;11.73;;;21.10;86.00;;;;;;10173843;29;20573;-96
2023/05/20 14:42:33;;;;;;;17.83;11.20;;;21.10;89.00;;;;;;10133878;29;20268;-95
2023/05/20 14:47:38;;;;;;;16.07;11.07;;;21.10;86.60;;;;;;10112995;29;20253;-94
2023/05/20 14:52:41;;;;;;;17.77;12.23;;;21.20;88.90;;;;;;10109673;29;20732;-94
2023/05/20 14:57:44;;;;;;;13.85;11.10;;;21.30;89.70;;;;;;10145690;29;20267;-93
2023/05/20 15:02:46;;;;;;;16.35;10.63;;;21.40;88.40;;;;;;10132645;29;20275;-96
2023/05/20 15:07:50;;;;;;;12.82;9.82;;;21.40;85.40;;;;;;10182698;29;20227;-96
2023/05/20 15:12:52;;;;;;;17.73;12.23;;;21.30;86.70;;;;;;10155254;29;20232;-96
2023/05/20 15:17:55;;;;;;;13.77;7.95;;;21.40;89.10;;;;;;10136425;29;20284;-96
2023/05/20 15:22:58;;;;;;;13.32;9.18;;;21.50;87.10;;;;;;10159306;29;20267;-95
2023/05/20 15:28:02;;;;;;;14.48;7.68;;;21.50;85.20;;;;;;10116324;29;20885;-95
2023/05/20 15:33:05;;;;;;;11.63;9.02;;;21.50;84.60;;;;;;10154210;29;20569;-96
2023/05/20 15:38:08;;;;;;;16.92;13.75;;;21.40;85.20;;;;;;10173025;29;20599;-96
2023/05/20 15:43:10;;;;;;;10.80;8.80;;;21.50;87.60;;;;;;10171498;29;20219;-95
2023/05/20 15:48:13;;;;;;;21.75;13.40;;;21.40;85.90;;;;;;10133031;29;20240;-94
2023/05/20 15:53:16;;;;;;;19.35;12.90;;;21.50;88.50;;;;;;10125592;29;20288;-95
2023/05/20 15:58:18;;;;;;;14.35;11.40;;;21.50;87.50;;;;;;10112814;29;20284;-94
2023/05/20 16:03:21;;;;;;;15.52;8.50;;;21.50;86.20;;;;;;10162476;29;20581;-96
2023/05/20 16:08:24;;;;;;;10.38;7.85;;;21.50;85.80;;;;;;10141614;29;20208;-96
2023/05/20 16:13:26;;;;;;;18.33;9.88;;;21.50;85.40;;;;;;10185213;29;20204;-96
2023/05/20 16:18:29;;;;;;;6.50;5.80;;;21.50;86.00;;;;;;10182008;29;20203;-96
2023/05/20 16:23:32;;;;;;;13.02;7.20;;;21.50;84.40;;;;;;10136921;29;20273;-95
2023/05/20 16:28:35;;;;;;;10.90;7.55;;;21.60;84.70;;;;;;10149489;29;20264;-96
2023/05/20 16:33:38;;;;;;;14.40;10.05;;;21.70;84.80;;;;;;10175716;29;20215;-95
2023/05/20 16:38:40;;;;;;;13.73;10.85;;;21.60;86.40;;;;;;10169635;29;20212;-95
2023/05/20 16:43:43;;;;;;;15.93;12.00;;;21.50;87.30;;;;;;10170608;29;20271;-96
2023/05/20 16:48:45;;;;;;;11.63;9.10;;;21.40;87.80;;;;;;10155289;29;20231;-96
2023/05/20 16:53:48;;;;;;;9.45;8.52;;;21.30;87.80;;;;;;10165458;29;20208;-95
2023/05/20 16:58:51;;;;;;;11.52;6.50;;;21.30;86.90;;;;;;10145698;29;20236;-95
2023/05/20 17:03:54;;;;;;;12.65;10.15;;;21.30;88.30;;;;;;10139237;29;20296;-94
2023/05/20 17:08:58;;;;;;;15.70;11.07;;;21.30;90.00;;;;;;10148225;29;20880;-95
2023/05/20 17:14:01;;;;;;;20.88;13.93;;;21.20;90.20;;;;;;10135155;29;20319;-94
2023/05/20 17:19:04;;;;;;;12.68;8.77;;;21.20;91.40;;;;;;10169530;29;20251;-93
2023/05/20 17:24:07;;;;;;;18.73;12.70;;;21.10;89.60;;;;;;10170997;29;20255;-92
2023/05/20 17:29:09;;;;;;;14.73;11.07;;;21.00;92.30;;;;;;10159605;29;20231;-93
2023/05/20 17:34:12;;;;;;;13.48;10.27;;;20.90;92.10;;;;;;10147852;29;20270;-92
2023/05/20 17:39:15;;;;;;;17.63;14.23;;;20.80;92.50;;;;;;10148855;29;20219;-93
2023/05/20 17:44:18;;;;;;;18.55;14.10;;;20.70;93.40;;;;;;10172253;29;20291;-92
2023/05/20 17:49:21;;;;;;;19.25;13.82;;;20.50;94.80;;;;;;10135932;29;20252;-91
2023/05/20 17:54:23;;;;;;;21.50;14.68;;;20.20;96.90;;;;;;9776360;29;10000203;-90
2023/05/20 17:59:26;;;;;;;26.08;14.38;;;19.60;99.00;;;;;;10148133;29;20267;-93
2023/05/20 18:04:28;;;;;;;23.23;14.15;;;19.30;99.90;;;;;;10133687;29;20247;-91
2023/05/20 18:09:31;;;;;;;20.60;14.73;;;18.90;99.90;;;;;;10114550;29;20255;-92
2023/05/20 18:14:33;;;;;;;17.83;13.77;;;18.60;99.90;;;;;;10167560;29;20239;-93
2023/05/20 18:19:36;;;;;;;25.92;13.60;;;18.30;99.90;;;;;;10166888;29;20243;-91
2023/05/20 18:24:38;;;;;;;21.17;15.38;;;18.10;99.90;;;;;;10155953;29;20381;-91
2023/05/20 18:29:41;;;;;;;29.52;16.75;;;17.70;99.90;;;;;;10147041;29;20338;-91
2023/05/20 18:34:43;;;;;;;24.88;16.23;;;17.50;99.90;;;;;;10157624;29;20255;-93
2023/05/20 18:39:47;;;;;;;21.30;16.42;;;17.30;99.90;;;;;;10151895;29;20236;-93
2023/05/20 18:44:49;;;;;;;32.38;17.30;;;17.10;99.90;;;;;;10128906;29;20774;-93
2023/05/20 18:49:54;;;;;;;21.45;15.95;;;16.80;99.90;;;;;;10130333;29;20272;-92
2023/05/20 18:54:56;;;;;;;23.25;15.35;;;16.70;99.90;;;;;;10170827;29;20299;-93
2023/05/20 19:00:01;;;;;;;15.35;12.15;;;16.60;99.90;;;;;;10136209;29;20271;-91
2023/05/20 19:05:08;;;;;;;14.85;11.23;;;16.60;99.90;;;;;;10157761;29;20244;-90
2023/05/20 19:10:11;;;;;;;12.52;11.18;;;16.60;99.90;;;;;;10139731;29;20259;-90
2023/05/20 19:15:15;;;;;;;17.00;14.25;;;16.60;99.90;;;;;;10132273;29;20239;-91
2023/05/20 19:20:18;;;;;;;18.58;14.88;;;16.60;99.90;;;;;;10128945;29;20717;-90
2023/05/20 19:25:20;;;;;;;17.85;12.27;;;16.50;99.90;;;;;;10144091;29;20247;-91
2023/05/20 19:30:23;;;;;;;16.30;12.65;;;16.50;99.90;;;;;;10158819;29;20330;-91
2023/05/20 19:35:26;;;;;;;25.88;20.65;;;16.40;99.90;;;;;;10158047;29;20243;-91
2023/05/20 19:40:28;;;;;;;22.70;17.52;;;16.40;99.90;;;;;;10160300;29;20239;-91
2023/05/20 19:45:31;;;;;;;20.10;11.57;;;16.30;99.90;;;;;;10159159;29;20267;-90
2023/05/20 19:50:34;;;;;;;22.65;17.80;;;16.30;99.90;;;;;;10133777;29;20349;-90
2023/05/20 19:55:37;;;;;;;13.80;10.45;;;16.30;99.90;;;;;;10162545;29;20243;-87
2023/05/20 20:00:40;;;;;;;15.48;12.85;;;16.30;99.90;;;;;;10136932;29;20302;-91
2023/05/20 20:05:42;;;;;;;20.40;14.18;;;16.30;99.90;;;;;;10157558;29;20271;-91
2023/05/20 20:10:45;;;;;;;15.60;13.43;;;16.20;99.90;;;;;;10156809;29;20248;-91
2023/05/20 20:15:48;;;;;;;12.80;11.48;;;16.20;99.90;;;;;;10163095;29;20239;-91
2023/05/20 20:20:50;;;;;;;25.33;15.38;;;16.20;99.90;;;;;;10139274;29;20644;-91
2023/05/20 20:25:53;;;;;;;24.52;19.05;;;16.10;99.90;;;;;;10167580;29;20264;-91
2023/05/20 20:30:55;;;;;;;21.25;13.43;;;16.00;99.90;;;;;;10141831;29;20262;-89
2023/05/20 20:35:58;;;;;;;10.95;9.38;;;16.00;99.90;;;;;;10161117;29;20247;-88
2023/05/20 20:41:02;;;;;;;16.27;12.43;;;16.00;99.90;;;;;;10169511;29;20290;-89
2023/05/20 20:46:05;;;;;;;20.33;15.35;;;16.00;99.90;;;;;;10162902;29;20248;-88
2023/05/20 20:51:07;;;;;;;14.07;12.60;;;15.90;99.90;;;;;;10169861;29;20266;-89
2023/05/20 20:56:10;;;;;;;22.02;18.23;;;15.80;99.90;;;;;;10160729;29;20263;-88
2023/05/20 21:01:16;;;;;;;26.15;20.00;;;15.70;99.90;;;;;;10153559;29;20267;-88
2023/05/20 21:06:18;;;;;;;21.25;17.10;;;15.70;99.90;;;;;;10169000;29;20247;-89
2023/05/20 21:11:24;;;;;;;13.07;10.68;;;15.60;99.90;;;;;;10149002;29;20590;-90
2023/05/20 21:16:27;;;;;;;20.90;17.17;;;15.70;99.90;;;;;;10147216;29;20235;-91
2023/05/20 21:21:30;;;;;;;13.95;12.23;;;15.60;99.90;;;;;;10163893;29;20299;-91
2023/05/20 21:26:33;;;;;;;23.52;20.50;;;15.60;99.90;;;;;;10149337;29;20255;-92
2023/05/20 21:42:30;;;;;;;16.38;14.38;;;15.10;99.90;;;;;;10171823;29;20326;-84
2023/05/20 21:47:32;;;;;;;18.48;15.35;;;15.00;99.90;;;;;;10172450;29;20254;-85
2023/05/20 21:52:35;;;;;;;18.40;15.55;;;15.10;99.90;;;;;;10154665;29;20659;-86
2023/05/20 21:57:37;;;;;;;20.67;16.35;;;15.00;99.90;;;;;;10171274;29;20235;-86
2023/05/20 22:02:40;;;;;;;19.58;17.52;;;15.00;99.90;;;;;;10132118;29;20292;-85
2023/05/20 22:07:43;;;;;;;21.30;18.00;;;14.90;99.90;;;;;;10118473;29;20243;-87
2023/05/20 22:12:49;;;;;;;14.20;12.75;;;14.90;99.90;;;;;;10151967;29;20270;-86
2023/05/20 22:17:59;;;;;;;18.63;15.90;;;14.80;99.90;;;;;;10150449;29;20645;-85
2023/05/20 22:23:03;;;;;;;21.73;17.63;;;14.90;99.90;;;;;;10126470;29;20299;-86
2023/05/20 22:28:07;;;;;;;21.20;18.05;;;14.80;99.90;;;;;;10161799;29;20294;-87
2023/05/20 22:33:10;;;;;;;16.95;15.15;;;14.90;99.90;;;;;;10169155;29;20263;-86
2023/05/20 22:38:13;;;;;;;20.33;16.60;;;14.80;99.90;;;;;;10158069;29;20334;-87
2023/05/20 22:43:15;;;;;;;13.13;11.82;;;14.80;99.90;;;;;;10185004;29;20255;-88
2023/05/20 22:48:21;;;;;;;25.23;19.88;;;14.80;99.90;;;;;;10192281;29;20704;-86
2023/05/20 22:53:24;;;;;;;15.98;13.07;;;14.70;99.90;;;;;;10169430;29;20266;-86
2023/05/20 22:58:28;;;;;;;21.60;17.38;;;14.60;99.90;;;;;;10169886;29;20248;-87
2023/05/20 23:03:30;;;;;;;24.00;19.25;;;14.50;99.90;;;;;;10169299;29;20247;-87
2023/05/20 23:08:34;;;;;;;18.95;15.88;;;14.40;99.90;;;;;;10199062;29;20599;-87
2023/05/20 23:13:37;;;;;;;17.33;14.88;;;14.40;99.90;;;;;;10207942;29;20263;-87
2023/05/20 23:18:40;;;;;;;18.92;16.95;;;14.40;99.90;;;;;;10194844;29;20282;-87
2023/05/20 23:23:42;;;;;;;15.88;14.18;;;14.40;99.90;;;;;;10185111;29;20649;-87
2023/05/20 23:28:46;;;;;;;22.08;19.25;;;14.40;99.90;;;;;;10169785;29;20247;-86
2023/05/20 23:33:49;;;;;;;24.95;19.05;;;14.30;99.90;;;;;;10159584;29;20299;-86
2023/05/20 23:38:51;;;;;;;23.30;16.60;;;14.20;99.90;;;;;;10183294;29;20258;-85
2023/05/20 23:43:54;;;;;;;18.23;16.25;;;14.10;99.90;;;;;;10184554;29;20238;-85
2023/05/20 23:48:59;;;;;;;21.25;19.00;;;14.20;99.90;;;;;;10190236;29;20235;-85
2023/05/20 23:54:01;;;;;;;13.93;12.05;;;14.20;99.90;;;;;;10168445;29;20314;-85
2023/05/20 23:59:04;;;;;;;14.02;11.75;;;14.10;99.90;;;;;;10197734;29;20235;-85
